createdAt,value
2022-09-07T00:00:16.525Z,136.23
2022-09-07T00:02:44.645Z,132.60
2022-09-07T00:05:13.766Z,136.45
2022-09-07T00:07:41.532Z,143.57
2022-09-07T00:10:10.211Z,146.52
2022-09-07T00:12:38.138Z,144.48
2022-09-07T00:15:09.471Z,150.43
2022-09-07T00:17:37.412Z,141.10
2022-09-07T00:20:07.506Z,154.10
2022-09-07T00:22:37.178Z,157.75
2022-09-07T00:25:06.240Z,153.88
2022-09-07T00:27:34.161Z,168.55
2022-09-07T00:30:01.933Z,162.95
2022-09-07T00:32:29.755Z,161.80
2022-09-07T00:34:57.645Z,157.85
2022-09-07T00:37:25.826Z,158.23
2022-09-07T00:39:55.096Z,157.20
2022-09-07T00:42:23.660Z,158.55
2022-09-07T00:45:11.353Z,167.40
2022-09-07T00:47:47.121Z,161.85
2022-09-07T00:50:20.236Z,168.20
2022-09-07T00:52:53.818Z,167.55
2022-09-07T00:55:23.853Z,162.40
2022-09-07T00:57:55.883Z,172.60
2022-09-07T01:00:23.688Z,162.20
2022-09-07T01:02:55.204Z,170.95
2022-09-07T01:05:27.316Z,161.60
2022-09-07T01:07:56.823Z,164.70
2022-09-07T01:10:31.587Z,165.68
2022-09-07T01:12:59.736Z,165.25
2022-09-07T01:15:41.098Z,168.15
2022-09-07T01:18:16.753Z,166.82
2022-09-07T01:20:56.590Z,166.23
2022-09-07T01:24:21.758Z,168.32
2022-09-07T01:27:33.496Z,165.57
2022-09-07T01:30:05.993Z,165.45
2022-09-07T01:32:48.322Z,163.93
2022-09-07T01:35:22.578Z,157.65
2022-09-07T01:37:57.864Z,165.63
2022-09-07T01:40:35.488Z,162.80
2022-09-07T01:43:10.244Z,171.82
2022-09-07T01:45:42.225Z,160.05
2022-09-07T01:48:15.792Z,171.63
2022-09-07T01:50:48.679Z,169.52
2022-09-07T01:53:22.254Z,159.30
2022-09-07T01:55:53.914Z,167.45
2022-09-07T01:58:28.962Z,169.70
2022-09-07T02:01:04.567Z,165.18
2022-09-07T02:03:38.386Z,154.98
2022-09-07T02:06:12.596Z,152.57
2022-09-07T02:08:45.875Z,153.50
2022-09-07T02:11:20.470Z,161.75
2022-09-07T02:13:56.064Z,177.07
2022-09-07T02:16:26.965Z,192.85
2022-09-07T02:18:57.839Z,217.52
2022-09-07T02:21:31.228Z,246.88
2022-09-07T02:24:05.303Z,287.33
2022-09-07T02:26:35.590Z,305.35
2022-09-07T02:29:05.066Z,370.67
2022-09-07T02:31:33.064Z,402.73
2022-09-07T02:34:01.968Z,390.65
2022-09-07T02:36:34.633Z,401.70
2022-09-07T02:39:02.472Z,390.17
2022-09-07T02:41:34.235Z,381.45
2022-09-07T02:44:05.728Z,380.77
2022-09-07T02:46:46.901Z,394.17
2022-09-07T02:49:30.949Z,376.83
2022-09-07T02:52:11.669Z,382.02
2022-09-07T02:54:52.900Z,388.48
2022-09-07T02:57:30.786Z,364.75
2022-09-07T03:00:08.529Z,375.33
2022-09-07T03:02:45.850Z,386.83
2022-09-07T03:05:20.371Z,386.50
2022-09-07T03:07:53.811Z,375.00
2022-09-07T03:10:23.029Z,375.92
2022-09-07T03:12:51.561Z,356.15
2022-09-07T03:15:23.332Z,372.73
2022-09-07T03:17:51.855Z,368.85
2022-09-07T03:20:20.800Z,351.60
2022-09-07T03:22:50.647Z,345.55
2022-09-07T03:25:19.133Z,353.63
2022-09-07T03:27:47.026Z,373.80
2022-09-07T03:30:15.674Z,359.17
2022-09-07T03:32:44.845Z,367.80
2022-09-07T03:35:14.460Z,365.27
2022-09-07T03:37:42.852Z,370.27
2022-09-07T03:40:13.029Z,363.27
2022-09-07T03:42:41.381Z,376.20
2022-09-07T03:45:11.050Z,384.25
2022-09-07T03:47:39.487Z,393.02
2022-09-07T03:50:09.537Z,385.63
2022-09-07T03:52:37.965Z,382.50
2022-09-07T03:55:06.591Z,376.88
2022-09-07T03:57:34.827Z,367.42
2022-09-07T04:00:03.315Z,367.67
2022-09-07T04:02:40.383Z,388.67
2022-09-07T04:05:10.155Z,399.38
2022-09-07T04:07:38.370Z,372.75
2022-09-07T04:10:06.735Z,386.33
2022-09-07T04:12:34.641Z,391.90
2022-09-07T04:15:02.486Z,397.10
2022-09-07T04:17:30.296Z,378.08
2022-09-07T04:19:58.146Z,398.65
2022-09-07T04:22:27.341Z,416.92
2022-09-07T04:24:55.152Z,389.27
2022-09-07T04:27:22.951Z,384.38
2022-09-07T04:29:50.808Z,409.65
2022-09-07T04:32:18.738Z,404.58
2022-09-07T04:34:46.590Z,387.40
2022-09-07T04:37:14.407Z,372.77
2022-09-07T04:39:43.605Z,400.58
2022-09-07T04:42:11.523Z,384.30
2022-09-07T04:44:39.304Z,395.77
2022-09-07T04:47:07.881Z,386.23
2022-09-07T04:49:35.851Z,376.48
2022-09-07T04:52:04.098Z,376.10
2022-09-07T04:54:32.013Z,387.20
2022-09-07T04:57:01.258Z,396.63
2022-09-07T04:59:29.135Z,383.88
2022-09-07T05:01:57.049Z,390.55
2022-09-07T05:04:24.892Z,392.08
2022-09-07T05:06:54.321Z,378.00
2022-09-07T05:09:22.190Z,395.50
2022-09-07T05:11:50.054Z,384.35
2022-09-07T05:14:19.363Z,397.85
2022-09-07T05:16:47.391Z,372.85
2022-09-07T05:19:15.934Z,366.40
2022-09-07T05:21:43.871Z,383.90
2022-09-07T05:24:11.676Z,353.50
2022-09-07T05:26:39.738Z,376.52
2022-09-07T05:31:57.969Z,368.17
2022-09-07T05:34:29.298Z,363.70
2022-09-07T05:36:57.748Z,371.08
2022-09-07T05:39:25.779Z,368.23
2022-09-07T05:41:53.949Z,364.02
2022-09-07T05:47:11.873Z,362.35
2022-09-07T05:49:39.855Z,374.92
2022-09-07T05:52:08.005Z,374.45
2022-09-07T05:54:36.008Z,364.83
2022-09-07T05:57:03.932Z,363.55
2022-09-07T05:59:31.964Z,350.65
2022-09-07T06:02:00.228Z,359.67
2022-09-07T06:04:29.573Z,373.85
2022-09-07T06:12:33.139Z,352.42
2022-09-07T06:15:01.481Z,344.45
2022-09-07T06:17:31.011Z,352.90
2022-09-07T06:20:00.241Z,350.27
2022-09-07T06:22:30.965Z,356.95
2022-09-07T06:24:59.377Z,360.00
2022-09-07T06:27:27.232Z,346.45
2022-09-07T06:29:55.332Z,349.30
2022-09-07T06:35:13.005Z,335.70
2022-09-07T06:37:40.906Z,349.77
2022-09-07T06:40:10.427Z,340.05
2022-09-07T06:42:38.910Z,340.10
2022-09-07T06:45:07.671Z,328.90
2022-09-07T06:47:35.747Z,329.52
2022-09-07T06:50:03.745Z,322.92
2022-09-07T06:55:20.717Z,296.38
2022-09-07T06:57:48.475Z,303.08
2022-09-07T07:00:16.898Z,297.10
2022-09-07T07:02:44.680Z,290.50
2022-09-07T07:05:12.506Z,288.85
2022-09-07T07:07:41.824Z,291.50
2022-09-07T07:10:10.264Z,296.13
2022-09-07T07:15:05.310Z,286.92
2022-09-07T07:17:33.199Z,288.63
2022-09-07T07:20:01.005Z,279.17
2022-09-07T07:22:46.275Z,275.10
2022-09-07T07:25:16.398Z,277.60
2022-09-07T07:27:45.841Z,253.27
2022-09-07T07:30:14.009Z,265.67
2022-09-07T07:32:42.246Z,272.23
2022-09-07T07:35:11.229Z,252.30
2022-09-07T07:37:39.586Z,271.88
2022-09-07T07:42:41.508Z,250.05
2022-09-07T07:47:58.410Z,263.00
2022-09-07T07:50:34.131Z,266.30
2022-09-07T07:55:53.348Z,236.38
2022-09-07T07:58:22.555Z,241.02
2022-09-07T08:00:54.665Z,253.10
2022-09-07T08:03:24.148Z,250.07
2022-09-07T08:05:52.349Z,242.50
2022-09-07T08:08:20.206Z,212.90
2022-09-07T08:10:48.183Z,222.23
2022-09-07T08:13:16.041Z,219.43
2022-09-07T08:15:46.470Z,213.85
2022-09-07T08:18:15.811Z,185.18
2022-09-07T08:20:44.070Z,200.00
2022-09-07T08:23:11.885Z,193.70
2022-09-07T08:25:39.989Z,204.90
2022-09-07T08:28:07.602Z,201.55
2022-09-07T08:30:35.219Z,196.48
2022-09-07T08:33:04.166Z,184.38
2022-09-07T08:35:31.812Z,192.40
2022-09-07T08:37:59.434Z,195.55
2022-09-07T08:40:28.141Z,173.75
2022-09-07T08:43:09.217Z,170.35
2022-09-07T08:45:42.267Z,167.00
2022-09-07T08:48:15.761Z,163.85
2022-09-07T08:50:53.956Z,158.10
2022-09-07T08:53:24.933Z,161.32
2022-09-07T08:55:56.972Z,167.43
2022-09-07T08:58:48.173Z,152.63
2022-09-07T09:01:34.053Z,159.88
2022-09-07T09:04:21.298Z,153.75
2022-09-07T09:07:03.525Z,156.48
2022-09-07T09:09:41.227Z,144.80
2022-09-07T09:12:20.995Z,138.85
2022-09-07T09:15:04.215Z,129.63
2022-09-07T09:17:36.539Z,128.85
2022-09-07T09:20:17.452Z,133.00
2022-09-07T09:22:45.841Z,128.85
2022-09-07T09:25:20.697Z,119.47
2022-09-07T09:27:49.318Z,102.25
2022-09-07T09:30:23.108Z,89.10
2022-09-07T09:32:52.950Z,79.13
2022-09-07T09:35:29.879Z,84.50
2022-09-07T09:37:58.130Z,78.68
2022-09-07T09:40:28.983Z,73.05
2022-09-07T09:43:02.118Z,75.63
2022-09-07T09:46:12.069Z,69.55
2022-09-07T09:48:22.047Z,70.85
2022-09-07T09:53:54.110Z,66.13
2022-09-07T09:56:22.768Z,61.30
2022-09-07T09:59:56.071Z,57.75
2022-09-07T10:04:33.777Z,37.35
2022-09-07T10:07:14.824Z,33.95
2022-09-07T10:09:49.649Z,31.42
2022-09-07T10:12:28.015Z,28.60
2022-09-07T10:14:56.534Z,27.95
2022-09-07T10:17:30.928Z,30.88
2022-09-07T10:20:03.452Z,31.30
2022-09-07T10:22:35.859Z,33.53
2022-09-07T10:25:06.076Z,32.95
2022-09-07T10:27:36.680Z,33.20
2022-09-07T10:30:12.789Z,28.90
2022-09-07T10:32:51.407Z,28.55
2022-09-07T10:35:25.144Z,27.48
2022-09-07T10:38:03.875Z,26.52
2022-09-07T10:40:35.654Z,25.00
2022-09-07T10:43:21.443Z,23.65
2022-09-07T10:49:24.828Z,23.15
2022-09-07T10:52:04.280Z,22.20
2022-09-07T10:54:43.493Z,23.88
2022-09-07T10:57:29.136Z,24.63
2022-09-07T11:00:11.077Z,23.40
2022-09-07T11:05:53.124Z,22.20
2022-09-07T11:09:15.485Z,23.52
2022-09-07T11:14:18.495Z,22.08
2022-09-07T11:16:53.264Z,22.40
2022-09-07T11:19:41.799Z,23.95
2022-09-07T11:22:20.608Z,22.10
2022-09-07T11:27:48.227Z,20.95
2022-09-07T11:30:22.227Z,22.00
2022-09-07T11:32:56.351Z,21.95
2022-09-07T11:35:35.045Z,23.63
2022-09-07T11:38:13.701Z,23.27
2022-09-07T11:40:49.705Z,25.50
2022-09-07T11:43:23.409Z,26.58
2022-09-07T11:45:55.353Z,28.20
2022-09-07T11:48:30.966Z,27.10
2022-09-07T11:51:03.345Z,26.40
2022-09-07T11:53:35.580Z,24.92
2022-09-07T11:56:07.323Z,25.23
2022-09-07T11:59:02.215Z,24.80
2022-09-07T12:01:40.837Z,25.33
2022-09-07T12:04:30.784Z,25.13
2022-09-07T12:07:16.610Z,22.83
2022-09-07T12:09:58.942Z,20.20
2022-09-07T12:12:43.669Z,19.75
2022-09-07T12:15:24.771Z,19.40
2022-09-07T12:18:07.516Z,20.13
2022-09-07T12:20:41.590Z,16.92
2022-09-07T12:23:23.007Z,16.30
2022-09-07T12:25:52.528Z,15.45
2022-09-07T12:28:53.659Z,17.08
2022-09-07T12:31:57.309Z,15.68
2022-09-07T12:35:00.837Z,19.95
2022-09-07T12:37:41.093Z,22.05
2022-09-07T12:40:57.745Z,27.75
2022-09-07T12:43:46.609Z,33.42
2022-09-07T12:46:50.011Z,38.15
2022-09-07T12:49:49.057Z,39.90
2022-09-07T12:52:41.963Z,38.80
2022-09-07T12:55:29.868Z,37.20
2022-09-07T12:58:08.600Z,38.97
2022-09-07T13:00:49.890Z,37.45
2022-09-07T13:09:31.752Z,39.22
2022-09-07T13:12:00.143Z,38.13
2022-09-07T13:14:29.805Z,44.13
2022-09-07T13:17:42.311Z,40.85
2022-09-07T13:20:30.030Z,37.17
2022-09-07T13:23:09.312Z,38.40
2022-09-07T13:25:49.181Z,40.25
2022-09-07T13:28:36.872Z,36.03
2022-09-07T13:31:34.872Z,28.85
2022-09-07T13:34:40.909Z,23.85
2022-09-07T13:37:17.398Z,19.92
2022-09-07T13:39:47.823Z,18.98
2022-09-07T13:42:18.304Z,16.83
2022-09-07T13:44:54.745Z,16.27
2022-09-07T13:47:34.556Z,16.35
2022-09-07T13:50:13.003Z,15.77
2022-09-07T13:53:15.115Z,16.52
2022-09-07T13:55:53.807Z,16.50
2022-09-07T13:58:27.407Z,16.70
2022-09-07T14:00:57.346Z,17.75
2022-09-07T14:03:26.832Z,16.90
2022-09-07T14:06:31.293Z,17.90
2022-09-07T14:09:03.461Z,18.23
2022-09-07T14:11:40.398Z,17.60
2022-09-07T14:14:16.260Z,17.80
2022-09-07T14:16:46.557Z,17.58
2022-09-07T14:19:19.539Z,16.15
2022-09-07T14:21:55.962Z,16.23
2022-09-07T14:24:31.046Z,18.60
2022-09-07T14:27:00.066Z,17.52
2022-09-07T14:29:31.111Z,17.65
2022-09-07T14:32:00.301Z,17.85
2022-09-07T14:34:32.995Z,17.80
2022-09-07T14:37:05.870Z,17.65
2022-09-07T14:39:40.134Z,16.40
2022-09-07T14:42:11.414Z,15.73
2022-09-07T14:44:42.879Z,12.32
2022-09-07T14:47:24.162Z,12.52
2022-09-07T14:49:53.080Z,12.60
2022-09-07T14:52:24.409Z,12.75
2022-09-07T14:54:54.236Z,12.68
2022-09-07T14:57:32.240Z,12.98
2022-09-07T15:00:19.565Z,13.90
2022-09-07T15:02:47.450Z,12.55
2022-09-07T15:05:27.571Z,13.30
2022-09-07T15:07:57.868Z,12.15
2022-09-07T15:10:35.208Z,12.38
2022-09-07T15:13:04.929Z,11.88
2022-09-07T15:15:35.013Z,12.02
2022-09-07T15:18:08.801Z,11.43
2022-09-07T15:20:43.072Z,12.45
2022-09-07T15:23:13.037Z,14.65
2022-09-07T15:25:45.393Z,17.33
2022-09-07T15:34:02.893Z,17.63
2022-09-07T15:36:32.051Z,17.10
2022-09-07T15:39:00.509Z,17.13
2022-09-07T15:41:30.102Z,15.40
2022-09-07T15:43:57.846Z,16.30
2022-09-07T15:46:25.581Z,15.55
2022-09-07T15:48:55.064Z,15.98
2022-09-07T15:54:13.727Z,17.50
2022-09-07T15:57:48.064Z,17.55
2022-09-07T15:59:32.140Z,18.40
2022-09-07T16:02:00.054Z,19.20
2022-09-07T16:04:27.865Z,19.13
2022-09-07T16:06:55.734Z,19.08
2022-09-07T16:09:23.380Z,19.50
2022-09-07T16:11:52.573Z,19.65
2022-09-07T16:14:20.392Z,21.42
2022-09-07T16:19:36.203Z,23.95
2022-09-07T16:22:04.184Z,25.50
2022-09-07T16:24:32.189Z,25.83
2022-09-07T16:27:01.583Z,28.67
2022-09-07T16:29:29.345Z,28.80
2022-09-07T16:34:44.963Z,31.98
2022-09-07T16:37:12.757Z,33.85
2022-09-07T16:39:40.379Z,36.28
2022-09-07T16:42:09.649Z,35.03
2022-09-07T16:44:37.274Z,37.45
2022-09-07T16:47:05.093Z,42.78
2022-09-07T16:49:32.720Z,42.58
2022-09-07T16:52:00.328Z,47.83
2022-09-07T16:54:28.126Z,43.10
2022-09-07T16:56:55.702Z,44.63
2022-09-07T16:59:26.715Z,47.90
2022-09-07T17:01:54.406Z,53.42
2022-09-07T17:04:22.241Z,53.42
2022-09-07T17:06:51.859Z,54.75
2022-09-07T17:09:20.477Z,54.17
2022-09-07T17:11:48.310Z,57.58
2022-09-07T17:14:16.509Z,56.17
2022-09-07T17:16:45.597Z,72.63
2022-09-07T17:19:31.665Z,72.03
2022-09-07T17:22:00.184Z,73.25
2022-09-07T17:24:32.391Z,78.60
2022-09-07T17:27:00.327Z,80.00
2022-09-07T17:29:30.339Z,79.57
2022-09-07T17:34:47.114Z,88.03
2022-09-07T17:37:14.740Z,86.70
2022-09-07T17:39:42.426Z,94.53
2022-09-07T17:42:10.063Z,97.03
2022-09-07T17:44:38.429Z,100.18
2022-09-07T17:47:07.781Z,108.97
2022-09-07T17:49:35.505Z,112.70
2022-09-07T17:52:03.693Z,122.53
2022-09-07T17:54:32.679Z,119.22
2022-09-07T17:57:00.327Z,127.82
2022-09-07T18:02:17.292Z,128.23
2022-09-07T18:04:45.019Z,127.53
2022-09-07T18:07:13.022Z,136.57
2022-09-07T18:09:40.697Z,140.57
2022-09-07T18:12:08.538Z,146.40
2022-09-07T18:14:36.184Z,145.27
2022-09-07T18:17:04.997Z,146.93
2022-09-07T18:19:34.040Z,151.32
2022-09-07T18:22:03.784Z,164.52
2022-09-07T18:24:31.500Z,168.38
2022-09-07T18:27:12.303Z,184.63
2022-09-07T18:29:40.144Z,188.68
2022-09-07T18:32:09.885Z,191.43
2022-09-07T18:34:41.350Z,205.20
2022-09-07T18:37:11.923Z,202.65
2022-09-07T18:39:40.912Z,206.60
2022-09-07T18:42:09.240Z,230.82
2022-09-07T18:47:28.660Z,227.23
2022-09-07T18:49:58.335Z,243.15
2022-09-07T18:55:14.233Z,231.93
2022-09-07T18:57:41.875Z,234.57
2022-09-07T19:00:11.935Z,234.10
2022-09-07T19:02:39.600Z,231.48
2022-09-07T19:07:56.915Z,248.00
2022-09-07T19:10:24.641Z,249.68
2022-09-07T19:12:52.266Z,241.02
2022-09-07T19:15:20.407Z,254.95
2022-09-07T19:17:48.057Z,248.48
2022-09-07T19:20:17.325Z,263.55
2022-09-07T19:22:44.974Z,279.15
2022-09-07T19:25:12.676Z,267.02
2022-09-07T19:27:40.388Z,281.90
2022-09-07T19:30:09.181Z,272.45
2022-09-07T19:32:36.931Z,285.45
2022-09-07T19:35:04.901Z,289.85
2022-09-07T19:37:33.920Z,291.63
2022-09-07T19:40:01.709Z,285.98
2022-09-07T19:42:29.543Z,303.40
2022-09-07T19:44:57.270Z,294.98
2022-09-07T19:47:24.963Z,311.80
2022-09-07T19:49:52.735Z,314.30
2022-09-07T19:52:20.551Z,324.40
2022-09-07T19:54:49.677Z,327.52
2022-09-07T19:57:17.324Z,336.10
2022-09-07T19:59:45.536Z,322.55
2022-09-07T20:02:13.290Z,307.88
2022-09-07T20:04:59.676Z,319.20
2022-09-07T20:07:47.734Z,327.90
2022-09-07T20:10:37.250Z,317.77
2022-09-07T20:13:25.141Z,301.33
2022-09-07T20:16:15.532Z,286.90
2022-09-07T20:19:03.479Z,296.77
2022-09-07T20:21:55.493Z,292.33
2022-09-07T20:24:43.685Z,291.10
2022-09-07T20:27:35.720Z,261.98
2022-09-07T20:30:24.756Z,255.23
2022-09-07T20:33:12.679Z,243.88
2022-09-07T20:36:04.242Z,228.20
2022-09-07T20:38:53.916Z,223.13
2022-09-07T20:41:41.775Z,220.55
2022-09-07T20:44:31.112Z,210.38
2022-09-07T20:47:19.007Z,198.52
2022-09-07T20:50:07.592Z,199.32
2022-09-07T20:52:55.897Z,208.23
2022-09-07T20:55:43.790Z,201.65
2022-09-07T20:58:32.132Z,195.15
2022-09-07T21:01:21.551Z,188.93
2022-09-07T21:04:09.496Z,180.55
2022-09-07T21:06:57.371Z,172.68
2022-09-07T21:09:45.298Z,191.00
2022-09-07T21:12:33.242Z,200.63
2022-09-07T21:15:21.137Z,205.00
2022-09-07T21:18:14.377Z,205.48
2022-09-07T21:21:20.134Z,205.27
2022-09-07T21:24:16.463Z,212.50
2022-09-07T21:27:04.437Z,204.60
2022-09-07T21:29:52.372Z,215.48
2022-09-07T21:32:40.339Z,220.73
2022-09-07T21:35:29.599Z,237.65
2022-09-07T21:38:17.589Z,246.05
2022-09-07T21:41:07.180Z,241.02
2022-09-07T21:43:56.356Z,252.65
2022-09-07T21:46:45.207Z,238.80
2022-09-07T21:49:33.137Z,262.85
2022-09-07T21:52:22.410Z,269.83
2022-09-07T21:55:10.618Z,264.15
2022-09-07T21:57:58.491Z,268.90
2022-09-07T22:00:46.431Z,261.73
2022-09-07T22:03:34.528Z,265.52
2022-09-07T22:06:22.994Z,268.30
2022-09-07T22:09:12.218Z,257.83
2022-09-07T22:12:01.096Z,278.65
2022-09-07T22:14:48.966Z,263.50
2022-09-07T22:17:36.839Z,269.42
2022-09-07T22:20:24.706Z,258.85
2022-09-07T22:23:12.574Z,275.38
2022-09-07T22:26:01.907Z,270.77
2022-09-07T22:28:50.299Z,271.95
2022-09-07T22:31:39.402Z,278.17
2022-09-07T22:34:29.086Z,274.30
2022-09-07T22:37:17.142Z,269.25
2022-09-07T22:40:05.669Z,263.38
2022-09-07T22:42:54.951Z,259.88
2022-09-07T22:45:42.825Z,253.68
2022-09-07T22:48:31.237Z,251.77
2022-09-07T22:51:19.795Z,242.63
2022-09-07T22:54:07.893Z,247.63
2022-09-07T22:56:55.794Z,244.77
2022-09-07T22:59:44.998Z,231.43
2022-09-07T23:02:33.034Z,228.98
2022-09-07T23:05:20.881Z,235.85
2022-09-07T23:08:08.890Z,218.98
2022-09-07T23:11:02.247Z,212.35
2022-09-07T23:13:51.878Z,212.90
2022-09-07T23:16:41.205Z,211.93
2022-09-07T23:19:29.150Z,201.15
2022-09-07T23:22:17.043Z,203.40
2022-09-07T23:25:05.603Z,219.82
2022-09-07T23:27:53.524Z,212.10
2022-09-07T23:30:41.417Z,210.80
2022-09-07T23:33:31.607Z,213.98
2022-09-07T23:36:20.232Z,210.95
2022-09-07T23:39:09.463Z,186.98
2022-09-07T23:41:58.658Z,186.80
2022-09-07T23:44:48.388Z,187.18
2022-09-07T23:47:36.250Z,196.90
2022-09-07T23:50:25.475Z,197.55
2022-09-07T23:53:14.154Z,213.52
2022-09-07T23:56:02.062Z,231.35
2022-09-07T23:58:49.953Z,247.18
